sensor_id;sensor_type;location;lat;lon;timestamp;P1;durP1;ratioP1;P2;durP2;ratioP2
53299;SDS011;39187;48.476;8.310;2023-04-08T00:01:24;3.10;;;3.00;;
53299;SDS011;39187;48.476;8.310;2023-04-08T00:03:50;3.60;;;3.40;;
53299;SDS011;39187;48.476;8.310;2023-04-08T00:06:16;3.40;;;3.23;;
53299;SDS011;39187;48.476;8.310;2023-04-08T00:08:41;5.77;;;3.20;;
53299;SDS011;39187;48.476;8.310;2023-04-08T00:11:06;3.83;;;3.73;;
53299;SDS011;39187;48.476;8.310;2023-04-08T00:13:32;3.10;;;2.90;;
53299;SDS011;39187;48.476;8.310;2023-04-08T00:15:57;3.13;;;3.03;;
53299;SDS011;39187;48.476;8.310;2023-04-08T00:18:23;3.80;;;3.60;;
53299;SDS011;39187;48.476;8.310;2023-04-08T00:20:48;3.23;;;3.13;;
53299;SDS011;39187;48.476;8.310;2023-04-08T00:23:14;4.83;;;4.53;;
53299;SDS011;39187;48.476;8.310;2023-04-08T00:25:40;5.17;;;4.67;;
53299;SDS011;39187;48.476;8.310;2023-04-08T00:28:05;4.83;;;4.63;;
53299;SDS011;39187;48.476;8.310;2023-04-08T00:30:31;4.60;;;4.40;;
53299;SDS011;39187;48.476;8.310;2023-04-08T00:32:56;4.50;;;4.30;;
53299;SDS011;39187;48.476;8.310;2023-04-08T00:35:22;6.00;;;4.20;;
53299;SDS011;39187;48.476;8.310;2023-04-08T00:37:48;4.00;;;3.90;;
53299;SDS011;39187;48.476;8.310;2023-04-08T00:40:14;4.40;;;4.10;;
53299;SDS011;39187;48.476;8.310;2023-04-08T00:42:39;4.77;;;4.43;;
53299;SDS011;39187;48.476;8.310;2023-04-08T00:45:05;4.17;;;3.97;;
53299;SDS011;39187;48.476;8.310;2023-04-08T00:47:31;4.70;;;4.50;;
53299;SDS011;39187;48.476;8.310;2023-04-08T00:49:57;4.40;;;4.20;;
53299;SDS011;39187;48.476;8.310;2023-04-08T00:52:22;5.07;;;4.87;;
53299;SDS011;39187;48.476;8.310;2023-04-08T00:54:48;4.37;;;4.17;;
53299;SDS011;39187;48.476;8.310;2023-04-08T00:57:13;4.50;;;4.20;;
53299;SDS011;39187;48.476;8.310;2023-04-08T00:59:39;4.90;;;4.50;;
53299;SDS011;39187;48.476;8.310;2023-04-08T01:02:25;4.50;;;4.20;;
53299;SDS011;39187;48.476;8.310;2023-04-08T01:05:07;5.43;;;5.13;;
53299;SDS011;39187;48.476;8.310;2023-04-08T01:07:38;4.80;;;4.53;;
53299;SDS011;39187;48.476;8.310;2023-04-08T01:10:12;5.53;;;5.33;;
53299;SDS011;39187;48.476;8.310;2023-04-08T01:12:42;4.63;;;4.30;;
53299;SDS011;39187;48.476;8.310;2023-04-08T01:15:12;4.87;;;4.57;;
53299;SDS011;39187;48.476;8.310;2023-04-08T01:17:38;5.93;;;5.43;;
53299;SDS011;39187;48.476;8.310;2023-04-08T01:20:05;5.37;;;5.07;;
53299;SDS011;39187;48.476;8.310;2023-04-08T01:25:11;5.17;;;4.87;;
53299;SDS011;39187;48.476;8.310;2023-04-08T01:27:41;4.50;;;4.30;;
53299;SDS011;39187;48.476;8.310;2023-04-08T01:30:08;6.60;;;6.30;;
53299;SDS011;39187;48.476;8.310;2023-04-08T01:32:35;5.17;;;4.90;;
53299;SDS011;39187;48.476;8.310;2023-04-08T01:35:02;6.93;;;6.57;;
53299;SDS011;39187;48.476;8.310;2023-04-08T01:37:29;6.40;;;6.10;;
53299;SDS011;39187;48.476;8.310;2023-04-08T01:39:57;6.93;;;6.33;;
53299;SDS011;39187;48.476;8.310;2023-04-08T01:42:24;6.03;;;5.57;;
53299;SDS011;39187;48.476;8.310;2023-04-08T01:44:53;6.07;;;5.77;;
53299;SDS011;39187;48.476;8.310;2023-04-08T01:47:21;5.60;;;5.10;;
53299;SDS011;39187;48.476;8.310;2023-04-08T01:49:49;6.53;;;6.13;;
53299;SDS011;39187;48.476;8.310;2023-04-08T01:52:17;5.87;;;5.47;;
53299;SDS011;39187;48.476;8.310;2023-04-08T01:54:44;6.47;;;6.07;;
53299;SDS011;39187;48.476;8.310;2023-04-08T01:57:11;6.60;;;6.30;;
53299;SDS011;39187;48.476;8.310;2023-04-08T01:59:41;6.90;;;6.50;;
53299;SDS011;39187;48.476;8.310;2023-04-08T02:02:08;6.70;;;6.20;;
53299;SDS011;39187;48.476;8.310;2023-04-08T02:04:35;6.60;;;6.30;;
53299;SDS011;39187;48.476;8.310;2023-04-08T02:07:01;7.13;;;6.63;;
53299;SDS011;39187;48.476;8.310;2023-04-08T02:09:27;6.17;;;5.67;;
53299;SDS011;39187;48.476;8.310;2023-04-08T02:11:52;7.20;;;6.70;;
53299;SDS011;39187;48.476;8.310;2023-04-08T02:14:18;5.93;;;5.60;;
53299;SDS011;39187;48.476;8.310;2023-04-08T02:19:19;5.87;;;5.57;;
53299;SDS011;39187;48.476;8.310;2023-04-08T02:22:11;7.27;;;6.87;;
53299;SDS011;39187;48.476;8.310;2023-04-08T02:24:44;7.03;;;6.53;;
53299;SDS011;39187;48.476;8.310;2023-04-08T02:27:10;7.03;;;6.63;;
53299;SDS011;39187;48.476;8.310;2023-04-08T02:29:37;6.80;;;6.17;;
53299;SDS011;39187;48.476;8.310;2023-04-08T02:32:05;6.53;;;6.23;;
53299;SDS011;39187;48.476;8.310;2023-04-08T02:34:35;6.50;;;6.13;;
53299;SDS011;39187;48.476;8.310;2023-04-08T02:37:03;7.10;;;6.70;;
53299;SDS011;39187;48.476;8.310;2023-04-08T02:39:31;6.53;;;6.00;;
53299;SDS011;39187;48.476;8.310;2023-04-08T02:41:57;6.97;;;6.57;;
53299;SDS011;39187;48.476;8.310;2023-04-08T02:44:23;6.50;;;6.00;;
53299;SDS011;39187;48.476;8.310;2023-04-08T02:46:48;6.57;;;6.17;;
53299;SDS011;39187;48.476;8.310;2023-04-08T02:49:14;6.00;;;5.60;;
53299;SDS011;39187;48.476;8.310;2023-04-08T02:51:39;6.63;;;6.23;;
53299;SDS011;39187;48.476;8.310;2023-04-08T02:54:05;6.57;;;6.07;;
53299;SDS011;39187;48.476;8.310;2023-04-08T02:56:30;6.23;;;5.83;;
53299;SDS011;39187;48.476;8.310;2023-04-08T02:58:56;7.03;;;6.57;;
53299;SDS011;39187;48.476;8.310;2023-04-08T03:01:21;6.33;;;5.93;;
53299;SDS011;39187;48.476;8.310;2023-04-08T03:03:47;5.60;;;5.30;;
53299;SDS011;39187;48.476;8.310;2023-04-08T03:06:12;6.53;;;6.03;;
53299;SDS011;39187;48.476;8.310;2023-04-08T03:08:38;5.17;;;4.97;;
53299;SDS011;39187;48.476;8.310;2023-04-08T03:11:03;5.97;;;5.50;;
53299;SDS011;39187;48.476;8.310;2023-04-08T03:13:29;6.23;;;5.83;;
53299;SDS011;39187;48.476;8.310;2023-04-08T03:15:55;6.80;;;6.30;;
53299;SDS011;39187;48.476;8.310;2023-04-08T03:18:21;5.33;;;5.13;;
53299;SDS011;39187;48.476;8.310;2023-04-08T03:20:47;5.17;;;4.80;;
53299;SDS011;39187;48.476;8.310;2023-04-08T03:23:12;5.37;;;5.10;;
53299;SDS011;39187;48.476;8.310;2023-04-08T03:25:37;5.00;;;4.70;;
53299;SDS011;39187;48.476;8.310;2023-04-08T03:28:03;3.93;;;3.73;;
53299;SDS011;39187;48.476;8.310;2023-04-08T03:30:28;4.63;;;4.43;;
53299;SDS011;39187;48.476;8.310;2023-04-08T03:32:54;4.53;;;4.33;;
53299;SDS011;39187;48.476;8.310;2023-04-08T03:35:20;4.93;;;4.73;;
53299;SDS011;39187;48.476;8.310;2023-04-08T03:37:45;4.30;;;4.10;;
53299;SDS011;39187;48.476;8.310;2023-04-08T03:40:11;4.13;;;3.90;;
53299;SDS011;39187;48.476;8.310;2023-04-08T03:42:37;5.10;;;4.80;;
53299;SDS011;39187;48.476;8.310;2023-04-08T03:45:02;6.10;;;5.80;;
53299;SDS011;39187;48.476;8.310;2023-04-08T03:47:29;4.77;;;4.47;;
53299;SDS011;39187;48.476;8.310;2023-04-08T03:49:54;5.00;;;4.70;;
53299;SDS011;39187;48.476;8.310;2023-04-08T03:52:20;5.43;;;5.13;;
53299;SDS011;39187;48.476;8.310;2023-04-08T03:54:46;5.63;;;5.23;;
53299;SDS011;39187;48.476;8.310;2023-04-08T03:57:12;5.10;;;4.80;;
53299;SDS011;39187;48.476;8.310;2023-04-08T03:59:38;5.23;;;4.87;;
53299;SDS011;39187;48.476;8.310;2023-04-08T04:02:05;4.47;;;4.13;;
53299;SDS011;39187;48.476;8.310;2023-04-08T04:04:31;6.53;;;6.13;;
53299;SDS011;39187;48.476;8.310;2023-04-08T04:06:56;5.60;;;5.30;;
53299;SDS011;39187;48.476;8.310;2023-04-08T04:09:22;5.93;;;5.53;;
53299;SDS011;39187;48.476;8.310;2023-04-08T04:11:47;5.20;;;4.90;;
53299;SDS011;39187;48.476;8.310;2023-04-08T04:14:13;4.80;;;4.60;;
53299;SDS011;39187;48.476;8.310;2023-04-08T04:16:38;5.47;;;5.10;;
53299;SDS011;39187;48.476;8.310;2023-04-08T04:19:04;5.10;;;4.80;;
53299;SDS011;39187;48.476;8.310;2023-04-08T04:21:29;4.77;;;4.57;;
53299;SDS011;39187;48.476;8.310;2023-04-08T04:23:55;4.60;;;4.40;;
53299;SDS011;39187;48.476;8.310;2023-04-08T04:26:20;4.90;;;4.60;;
53299;SDS011;39187;48.476;8.310;2023-04-08T04:28:46;4.27;;;4.03;;
53299;SDS011;39187;48.476;8.310;2023-04-08T04:31:18;3.83;;;3.63;;
53299;SDS011;39187;48.476;8.310;2023-04-08T04:33:46;3.50;;;3.40;;
53299;SDS011;39187;48.476;8.310;2023-04-08T04:36:12;4.37;;;3.63;;
53299;SDS011;39187;48.476;8.310;2023-04-08T04:38:38;3.87;;;3.67;;
53299;SDS011;39187;48.476;8.310;2023-04-08T04:41:03;4.30;;;4.10;;
53299;SDS011;39187;48.476;8.310;2023-04-08T04:43:29;4.57;;;4.17;;
53299;SDS011;39187;48.476;8.310;2023-04-08T04:45:54;4.13;;;3.93;;
53299;SDS011;39187;48.476;8.310;2023-04-08T04:48:21;4.17;;;3.90;;
53299;SDS011;39187;48.476;8.310;2023-04-08T04:50:57;3.30;;;3.20;;
53299;SDS011;39187;48.476;8.310;2023-04-08T04:53:24;3.60;;;3.40;;
53299;SDS011;39187;48.476;8.310;2023-04-08T04:55:50;3.73;;;3.63;;
53299;SDS011;39187;48.476;8.310;2023-04-08T04:58:16;3.03;;;2.93;;
53299;SDS011;39187;48.476;8.310;2023-04-08T05:00:42;3.87;;;3.67;;
53299;SDS011;39187;48.476;8.310;2023-04-08T05:03:07;3.77;;;3.57;;
53299;SDS011;39187;48.476;8.310;2023-04-08T05:05:32;4.27;;;4.07;;
53299;SDS011;39187;48.476;8.310;2023-04-08T05:07:58;4.53;;;4.33;;
53299;SDS011;39187;48.476;8.310;2023-04-08T05:10:24;3.90;;;3.73;;
53299;SDS011;39187;48.476;8.310;2023-04-08T05:12:50;5.23;;;4.93;;
53299;SDS011;39187;48.476;8.310;2023-04-08T05:15:15;4.70;;;4.50;;
53299;SDS011;39187;48.476;8.310;2023-04-08T05:17:41;4.87;;;4.47;;
53299;SDS011;39187;48.476;8.310;2023-04-08T05:20:06;4.50;;;4.20;;
53299;SDS011;39187;48.476;8.310;2023-04-08T05:22:32;4.00;;;3.80;;
53299;SDS011;39187;48.476;8.310;2023-04-08T05:24:58;4.20;;;4.00;;
53299;SDS011;39187;48.476;8.310;2023-04-08T05:27:24;5.57;;;5.27;;
53299;SDS011;39187;48.476;8.310;2023-04-08T05:29:50;4.77;;;4.57;;
53299;SDS011;39187;48.476;8.310;2023-04-08T05:32:15;4.93;;;4.63;;
53299;SDS011;39187;48.476;8.310;2023-04-08T05:34:41;4.83;;;4.60;;
53299;SDS011;39187;48.476;8.310;2023-04-08T05:37:07;4.97;;;4.73;;
53299;SDS011;39187;48.476;8.310;2023-04-08T05:39:32;6.60;;;6.20;;
53299;SDS011;39187;48.476;8.310;2023-04-08T05:41:58;7.43;;;6.97;;
53299;SDS011;39187;48.476;8.310;2023-04-08T05:44:23;8.10;;;7.60;;
53299;SDS011;39187;48.476;8.310;2023-04-08T05:46:49;12.10;;;10.17;;
53299;SDS011;39187;48.476;8.310;2023-04-08T05:49:15;9.83;;;9.00;;
53299;SDS011;39187;48.476;8.310;2023-04-08T05:51:41;6.90;;;6.40;;
53299;SDS011;39187;48.476;8.310;2023-04-08T05:54:07;3.80;;;3.60;;
53299;SDS011;39187;48.476;8.310;2023-04-08T05:56:33;4.27;;;4.07;;
53299;SDS011;39187;48.476;8.310;2023-04-08T05:58:59;4.50;;;4.10;;
53299;SDS011;39187;48.476;8.310;2023-04-08T06:01:25;3.77;;;3.57;;
53299;SDS011;39187;48.476;8.310;2023-04-08T06:03:50;4.10;;;3.90;;
53299;SDS011;39187;48.476;8.310;2023-04-08T06:06:20;4.33;;;4.03;;
53299;SDS011;39187;48.476;8.310;2023-04-08T06:08:46;4.10;;;3.90;;
53299;SDS011;39187;48.476;8.310;2023-04-08T06:11:12;4.97;;;3.47;;
53299;SDS011;39187;48.476;8.310;2023-04-08T06:13:38;4.03;;;3.83;;
53299;SDS011;39187;48.476;8.310;2023-04-08T06:16:10;4.67;;;4.37;;
53299;SDS011;39187;48.476;8.310;2023-04-08T06:18:37;3.73;;;3.57;;
53299;SDS011;39187;48.476;8.310;2023-04-08T06:21:02;3.60;;;3.50;;
53299;SDS011;39187;48.476;8.310;2023-04-08T06:23:28;3.90;;;3.70;;
53299;SDS011;39187;48.476;8.310;2023-04-08T06:25:53;3.77;;;3.57;;
53299;SDS011;39187;48.476;8.310;2023-04-08T06:28:19;3.90;;;3.70;;
53299;SDS011;39187;48.476;8.310;2023-04-08T06:30:44;4.23;;;4.03;;
53299;SDS011;39187;48.476;8.310;2023-04-08T06:33:10;3.87;;;3.70;;
53299;SDS011;39187;48.476;8.310;2023-04-08T06:35:35;4.13;;;3.83;;
53299;SDS011;39187;48.476;8.310;2023-04-08T06:38:04;3.10;;;3.00;;
53299;SDS011;39187;48.476;8.310;2023-04-08T06:40:29;3.20;;;3.10;;
53299;SDS011;39187;48.476;8.310;2023-04-08T06:42:55;3.47;;;3.30;;
53299;SDS011;39187;48.476;8.310;2023-04-08T06:45:20;3.50;;;3.30;;
53299;SDS011;39187;48.476;8.310;2023-04-08T06:47:47;4.50;;;4.20;;
53299;SDS011;39187;48.476;8.310;2023-04-08T06:50:12;3.50;;;3.40;;
53299;SDS011;39187;48.476;8.310;2023-04-08T06:52:38;3.60;;;3.40;;
53299;SDS011;39187;48.476;8.310;2023-04-08T06:55:03;4.17;;;3.87;;
53299;SDS011;39187;48.476;8.310;2023-04-08T06:57:29;4.30;;;4.10;;
53299;SDS011;39187;48.476;8.310;2023-04-08T06:59:55;4.00;;;3.80;;
53299;SDS011;39187;48.476;8.310;2023-04-08T07:02:21;4.00;;;3.80;;
53299;SDS011;39187;48.476;8.310;2023-04-08T07:04:47;3.77;;;3.57;;
53299;SDS011;39187;48.476;8.310;2023-04-08T07:07:13;3.60;;;3.40;;
53299;SDS011;39187;48.476;8.310;2023-04-08T07:09:38;3.60;;;3.40;;
53299;SDS011;39187;48.476;8.310;2023-04-08T07:12:07;3.70;;;3.40;;
53299;SDS011;39187;48.476;8.310;2023-04-08T07:14:33;3.30;;;3.20;;
53299;SDS011;39187;48.476;8.310;2023-04-08T07:16:58;3.90;;;3.70;;
53299;SDS011;39187;48.476;8.310;2023-04-08T07:19:24;3.77;;;3.67;;
53299;SDS011;39187;48.476;8.310;2023-04-08T07:21:50;4.00;;;3.73;;
53299;SDS011;39187;48.476;8.310;2023-04-08T07:24:16;5.40;;;5.10;;
53299;SDS011;39187;48.476;8.310;2023-04-08T07:26:42;5.40;;;5.10;;
53299;SDS011;39187;48.476;8.310;2023-04-08T07:29:08;4.20;;;4.00;;
53299;SDS011;39187;48.476;8.310;2023-04-08T07:31:34;4.30;;;4.10;;
53299;SDS011;39187;48.476;8.310;2023-04-08T07:33:59;4.20;;;4.00;;
53299;SDS011;39187;48.476;8.310;2023-04-08T07:36:25;4.60;;;4.40;;
53299;SDS011;39187;48.476;8.310;2023-04-08T07:38:51;4.53;;;4.33;;
53299;SDS011;39187;48.476;8.310;2023-04-08T07:41:16;4.57;;;4.37;;
53299;SDS011;39187;48.476;8.310;2023-04-08T07:43:41;4.03;;;3.83;;
53299;SDS011;39187;48.476;8.310;2023-04-08T07:46:07;4.40;;;4.20;;
53299;SDS011;39187;48.476;8.310;2023-04-08T07:48:33;4.27;;;3.80;;
53299;SDS011;39187;48.476;8.310;2023-04-08T07:51:06;4.10;;;3.90;;
53299;SDS011;39187;48.476;8.310;2023-04-08T07:53:33;3.53;;;3.33;;
53299;SDS011;39187;48.476;8.310;2023-04-08T07:55:59;4.27;;;4.07;;
53299;SDS011;39187;48.476;8.310;2023-04-08T07:58:25;4.43;;;4.03;;
53299;SDS011;39187;48.476;8.310;2023-04-08T08:00:51;4.30;;;4.20;;
53299;SDS011;39187;48.476;8.310;2023-04-08T08:03:17;4.87;;;4.57;;
53299;SDS011;39187;48.476;8.310;2023-04-08T08:05:42;4.67;;;4.47;;
53299;SDS011;39187;48.476;8.310;2023-04-08T08:08:08;4.77;;;4.57;;
53299;SDS011;39187;48.476;8.310;2023-04-08T08:10:36;5.10;;;4.90;;
53299;SDS011;39187;48.476;8.310;2023-04-08T08:13:02;4.87;;;4.57;;
53299;SDS011;39187;48.476;8.310;2023-04-08T08:15:28;4.60;;;4.40;;
53299;SDS011;39187;48.476;8.310;2023-04-08T08:17:53;4.43;;;4.23;;
53299;SDS011;39187;48.476;8.310;2023-04-08T08:20:19;6.07;;;5.57;;
53299;SDS011;39187;48.476;8.310;2023-04-08T08:22:44;11.83;;;10.60;;
53299;SDS011;39187;48.476;8.310;2023-04-08T08:25:10;5.73;;;5.53;;
53299;SDS011;39187;48.476;8.310;2023-04-08T08:27:35;6.10;;;5.70;;
53299;SDS011;39187;48.476;8.310;2023-04-08T08:30:02;5.57;;;5.27;;
53299;SDS011;39187;48.476;8.310;2023-04-08T08:32:28;5.93;;;5.73;;
53299;SDS011;39187;48.476;8.310;2023-04-08T08:34:53;5.57;;;5.27;;
53299;SDS011;39187;48.476;8.310;2023-04-08T08:37:19;6.53;;;6.20;;
53299;SDS011;39187;48.476;8.310;2023-04-08T08:39:45;7.27;;;6.60;;
53299;SDS011;39187;48.476;8.310;2023-04-08T08:42:20;6.90;;;6.47;;
53299;SDS011;39187;48.476;8.310;2023-04-08T08:44:47;7.47;;;7.07;;
53299;SDS011;39187;48.476;8.310;2023-04-08T08:47:13;7.87;;;7.17;;
53299;SDS011;39187;48.476;8.310;2023-04-08T08:49:39;7.20;;;6.80;;
53299;SDS011;39187;48.476;8.310;2023-04-08T08:52:05;7.30;;;6.80;;
53299;SDS011;39187;48.476;8.310;2023-04-08T08:54:31;7.23;;;6.73;;
53299;SDS011;39187;48.476;8.310;2023-04-08T08:56:57;7.67;;;7.13;;
53299;SDS011;39187;48.476;8.310;2023-04-08T08:59:23;7.67;;;7.27;;
53299;SDS011;39187;48.476;8.310;2023-04-08T09:01:48;8.13;;;7.53;;
53299;SDS011;39187;48.476;8.310;2023-04-08T09:04:17;9.80;;;8.20;;
53299;SDS011;39187;48.476;8.310;2023-04-08T09:06:47;8.60;;;8.00;;
53299;SDS011;39187;48.476;8.310;2023-04-08T09:09:15;9.30;;;8.60;;
53299;SDS011;39187;48.476;8.310;2023-04-08T09:11:42;9.27;;;8.40;;
53299;SDS011;39187;48.476;8.310;2023-04-08T09:14:20;9.57;;;8.90;;
53299;SDS011;39187;48.476;8.310;2023-04-08T09:16:50;9.90;;;9.10;;
53299;SDS011;39187;48.476;8.310;2023-04-08T09:19:16;9.90;;;9.17;;
53299;SDS011;39187;48.476;8.310;2023-04-08T09:21:42;10.43;;;9.73;;
53299;SDS011;39187;48.476;8.310;2023-04-08T09:24:08;10.03;;;9.27;;
53299;SDS011;39187;48.476;8.310;2023-04-08T09:26:50;11.40;;;10.40;;
53299;SDS011;39187;48.476;8.310;2023-04-08T09:29:16;17.67;;;14.07;;
53299;SDS011;39187;48.476;8.310;2023-04-08T09:31:41;14.33;;;13.00;;
53299;SDS011;39187;48.476;8.310;2023-04-08T09:34:11;13.03;;;11.90;;
53299;SDS011;39187;48.476;8.310;2023-04-08T09:36:39;12.60;;;11.50;;
53299;SDS011;39187;48.476;8.310;2023-04-08T09:39:05;16.80;;;14.80;;
53299;SDS011;39187;48.476;8.310;2023-04-08T09:41:34;13.80;;;12.50;;
53299;SDS011;39187;48.476;8.310;2023-04-08T09:44:05;15.10;;;13.67;;
53299;SDS011;39187;48.476;8.310;2023-04-08T09:46:35;15.37;;;13.97;;
53299;SDS011;39187;48.476;8.310;2023-04-08T09:49:06;16.73;;;15.00;;
53299;SDS011;39187;48.476;8.310;2023-04-08T09:51:42;15.90;;;14.33;;
53299;SDS011;39187;48.476;8.310;2023-04-08T09:54:13;17.07;;;14.13;;
53299;SDS011;39187;48.476;8.310;2023-04-08T09:59:48;15.83;;;13.73;;
53299;SDS011;39187;48.476;8.310;2023-04-08T10:02:39;16.77;;;15.03;;
53299;SDS011;39187;48.476;8.310;2023-04-08T10:05:25;17.77;;;15.87;;
53299;SDS011;39187;48.476;8.310;2023-04-08T10:07:52;17.10;;;15.50;;
53299;SDS011;39187;48.476;8.310;2023-04-08T10:10:19;15.90;;;14.40;;
53299;SDS011;39187;48.476;8.310;2023-04-08T10:12:46;17.47;;;15.67;;
53299;SDS011;39187;48.476;8.310;2023-04-08T10:15:29;16.97;;;15.47;;
53299;SDS011;39187;48.476;8.310;2023-04-08T10:18:42;16.23;;;14.63;;
53299;SDS011;39187;48.476;8.310;2023-04-08T10:20:46;17.73;;;15.70;;
53299;SDS011;39187;48.476;8.310;2023-04-08T10:23:13;15.20;;;13.37;;
53299;SDS011;39187;48.476;8.310;2023-04-08T10:25:40;15.70;;;14.30;;
53299;SDS011;39187;48.476;8.310;2023-04-08T10:30:43;15.37;;;13.97;;
53299;SDS011;39187;48.476;8.310;2023-04-08T10:33:17;14.53;;;13.13;;
53299;SDS011;39187;48.476;8.310;2023-04-08T10:35:49;16.10;;;14.50;;
53299;SDS011;39187;48.476;8.310;2023-04-08T10:38:24;14.93;;;13.43;;
53299;SDS011;39187;48.476;8.310;2023-04-08T10:40:49;13.47;;;12.27;;
53299;SDS011;39187;48.476;8.310;2023-04-08T10:43:15;14.37;;;12.97;;
53299;SDS011;39187;48.476;8.310;2023-04-08T10:45:41;18.60;;;14.53;;
53299;SDS011;39187;48.476;8.310;2023-04-08T10:48:12;14.03;;;12.73;;
53299;SDS011;39187;48.476;8.310;2023-04-08T10:50:37;14.73;;;13.33;;
53299;SDS011;39187;48.476;8.310;2023-04-08T10:53:03;14.97;;;13.43;;
53299;SDS011;39187;48.476;8.310;2023-04-08T10:55:29;14.80;;;13.13;;
53299;SDS011;39187;48.476;8.310;2023-04-08T10:58:03;16.00;;;14.17;;
53299;SDS011;39187;48.476;8.310;2023-04-08T11:00:33;13.73;;;12.43;;
53299;SDS011;39187;48.476;8.310;2023-04-08T11:03:04;12.00;;;11.10;;
53299;SDS011;39187;48.476;8.310;2023-04-08T11:05:32;16.47;;;15.07;;
53299;SDS011;39187;48.476;8.310;2023-04-08T11:07:58;13.33;;;12.23;;
53299;SDS011;39187;48.476;8.310;2023-04-08T11:10:25;13.43;;;12.17;;
53299;SDS011;39187;48.476;8.310;2023-04-08T11:12:52;11.80;;;10.90;;
53299;SDS011;39187;48.476;8.310;2023-04-08T11:15:21;14.40;;;13.13;;
53299;SDS011;39187;48.476;8.310;2023-04-08T11:17:48;12.27;;;11.27;;
53299;SDS011;39187;48.476;8.310;2023-04-08T11:20:14;13.57;;;12.47;;
53299;SDS011;39187;48.476;8.310;2023-04-08T11:22:40;11.23;;;10.53;;
53299;SDS011;39187;48.476;8.310;2023-04-08T11:25:06;11.03;;;10.27;;
53299;SDS011;39187;48.476;8.310;2023-04-08T11:27:34;13.00;;;11.93;;
53299;SDS011;39187;48.476;8.310;2023-04-08T11:30:00;12.37;;;11.47;;
53299;SDS011;39187;48.476;8.310;2023-04-08T11:32:27;11.17;;;10.37;;
53299;SDS011;39187;48.476;8.310;2023-04-08T11:34:53;11.90;;;10.90;;
53299;SDS011;39187;48.476;8.310;2023-04-08T11:37:19;11.83;;;10.80;;
53299;SDS011;39187;48.476;8.310;2023-04-08T11:39:45;10.27;;;9.57;;
53299;SDS011;39187;48.476;8.310;2023-04-08T11:42:32;11.87;;;9.87;;
53299;SDS011;39187;48.476;8.310;2023-04-08T11:44:57;12.27;;;11.13;;
53299;SDS011;39187;48.476;8.310;2023-04-08T11:47:32;12.07;;;10.90;;
53299;SDS011;39187;48.476;8.310;2023-04-08T11:49:59;13.13;;;11.83;;
53299;SDS011;39187;48.476;8.310;2023-04-08T11:57:50;11.57;;;10.70;;
53299;SDS011;39187;48.476;8.310;2023-04-08T12:00:19;13.07;;;11.73;;
53299;SDS011;39187;48.476;8.310;2023-04-08T12:02:45;13.10;;;12.00;;
53299;SDS011;39187;48.476;8.310;2023-04-08T12:05:14;12.70;;;11.50;;
53299;SDS011;39187;48.476;8.310;2023-04-08T12:07:40;11.53;;;10.73;;
53299;SDS011;39187;48.476;8.310;2023-04-08T12:10:07;12.43;;;11.43;;
53299;SDS011;39187;48.476;8.310;2023-04-08T12:12:33;18.40;;;11.27;;
53299;SDS011;39187;48.476;8.310;2023-04-08T12:14:59;12.87;;;11.87;;
53299;SDS011;39187;48.476;8.310;2023-04-08T12:17:25;10.80;;;9.73;;
53299;SDS011;39187;48.476;8.310;2023-04-08T12:19:50;11.23;;;10.47;;
53299;SDS011;39187;48.476;8.310;2023-04-08T12:22:16;11.93;;;10.77;;
53299;SDS011;39187;48.476;8.310;2023-04-08T12:24:41;10.87;;;10.17;;
53299;SDS011;39187;48.476;8.310;2023-04-08T12:27:07;11.27;;;10.40;;
53299;SDS011;39187;48.476;8.310;2023-04-08T12:29:32;11.07;;;10.33;;
53299;SDS011;39187;48.476;8.310;2023-04-08T12:31:58;10.43;;;9.73;;
53299;SDS011;39187;48.476;8.310;2023-04-08T12:34:24;9.20;;;8.50;;
53299;SDS011;39187;48.476;8.310;2023-04-08T12:36:49;11.57;;;10.57;;
53299;SDS011;39187;48.476;8.310;2023-04-08T12:39:15;10.77;;;10.07;;
53299;SDS011;39187;48.476;8.310;2023-04-08T12:41:40;9.30;;;8.70;;
53299;SDS011;39187;48.476;8.310;2023-04-08T12:44:06;9.80;;;9.20;;
53299;SDS011;39187;48.476;8.310;2023-04-08T12:46:32;10.53;;;9.60;;
53299;SDS011;39187;48.476;8.310;2023-04-08T12:48:58;11.50;;;10.77;;
53299;SDS011;39187;48.476;8.310;2023-04-08T12:51:23;10.97;;;10.13;;
53299;SDS011;39187;48.476;8.310;2023-04-08T12:53:53;12.17;;;11.17;;
53299;SDS011;39187;48.476;8.310;2023-04-08T12:56:18;10.20;;;9.60;;
53299;SDS011;39187;48.476;8.310;2023-04-08T12:58:45;13.20;;;12.00;;
53299;SDS011;39187;48.476;8.310;2023-04-08T13:01:11;11.53;;;10.63;;
53299;SDS011;39187;48.476;8.310;2023-04-08T13:03:36;10.83;;;9.87;;
53299;SDS011;39187;48.476;8.310;2023-04-08T13:06:02;11.57;;;10.67;;
53299;SDS011;39187;48.476;8.310;2023-04-08T13:08:27;10.80;;;10.10;;
53299;SDS011;39187;48.476;8.310;2023-04-08T13:10:53;12.87;;;11.90;;
53299;SDS011;39187;48.476;8.310;2023-04-08T13:13:19;11.77;;;10.97;;
53299;SDS011;39187;48.476;8.310;2023-04-08T13:15:44;13.40;;;12.30;;
53299;SDS011;39187;48.476;8.310;2023-04-08T13:18:11;12.73;;;11.50;;
53299;SDS011;39187;48.476;8.310;2023-04-08T13:20:36;11.83;;;10.93;;
53299;SDS011;39187;48.476;8.310;2023-04-08T13:23:02;14.23;;;11.83;;
53299;SDS011;39187;48.476;8.310;2023-04-08T13:25:27;13.33;;;12.10;;
53299;SDS011;39187;48.476;8.310;2023-04-08T13:27:53;13.30;;;12.17;;
53299;SDS011;39187;48.476;8.310;2023-04-08T13:30:18;12.73;;;11.73;;
53299;SDS011;39187;48.476;8.310;2023-04-08T13:32:44;12.07;;;11.07;;
53299;SDS011;39187;48.476;8.310;2023-04-08T13:35:09;13.30;;;12.30;;
53299;SDS011;39187;48.476;8.310;2023-04-08T13:37:35;12.50;;;11.30;;
53299;SDS011;39187;48.476;8.310;2023-04-08T13:40:01;11.50;;;10.73;;
53299;SDS011;39187;48.476;8.310;2023-04-08T13:42:27;14.87;;;13.57;;
53299;SDS011;39187;48.476;8.310;2023-04-08T13:44:55;13.37;;;12.17;;
53299;SDS011;39187;48.476;8.310;2023-04-08T13:47:21;13.00;;;12.03;;
53299;SDS011;39187;48.476;8.310;2023-04-08T13:49:47;13.77;;;12.40;;
53299;SDS011;39187;48.476;8.310;2023-04-08T13:52:12;12.73;;;11.80;;
53299;SDS011;39187;48.476;8.310;2023-04-08T13:54:38;13.63;;;12.30;;
53299;SDS011;39187;48.476;8.310;2023-04-08T13:57:03;13.57;;;12.47;;
53299;SDS011;39187;48.476;8.310;2023-04-08T13:59:29;13.73;;;12.60;;
53299;SDS011;39187;48.476;8.310;2023-04-08T14:01:55;14.97;;;13.60;;
53299;SDS011;39187;48.476;8.310;2023-04-08T14:04:20;13.00;;;11.80;;
53299;SDS011;39187;48.476;8.310;2023-04-08T14:06:47;15.13;;;13.80;;
53299;SDS011;39187;48.476;8.310;2023-04-08T14:09:15;14.63;;;13.13;;
53299;SDS011;39187;48.476;8.310;2023-04-08T14:11:41;12.33;;;11.33;;
53299;SDS011;39187;48.476;8.310;2023-04-08T14:14:07;12.97;;;11.97;;
53299;SDS011;39187;48.476;8.310;2023-04-08T14:16:32;12.73;;;11.73;;
53299;SDS011;39187;48.476;8.310;2023-04-08T14:18:59;13.90;;;12.80;;
53299;SDS011;39187;48.476;8.310;2023-04-08T14:21:25;15.17;;;13.80;;
53299;SDS011;39187;48.476;8.310;2023-04-08T14:23:50;13.63;;;12.47;;
53299;SDS011;39187;48.476;8.310;2023-04-08T14:26:16;13.47;;;12.40;;
53299;SDS011;39187;48.476;8.310;2023-04-08T14:28:42;12.60;;;11.50;;
53299;SDS011;39187;48.476;8.310;2023-04-08T14:31:07;14.27;;;13.10;;
53299;SDS011;39187;48.476;8.310;2023-04-08T14:33:33;13.93;;;12.47;;
53299;SDS011;39187;48.476;8.310;2023-04-08T14:35:58;14.70;;;13.37;;
53299;SDS011;39187;48.476;8.310;2023-04-08T14:38:24;12.60;;;11.70;;
53299;SDS011;39187;48.476;8.310;2023-04-08T14:40:50;14.73;;;13.37;;
53299;SDS011;39187;48.476;8.310;2023-04-08T14:43:16;16.10;;;14.43;;
53299;SDS011;39187;48.476;8.310;2023-04-08T14:45:41;14.33;;;12.97;;
53299;SDS011;39187;48.476;8.310;2023-04-08T14:48:08;13.60;;;12.13;;
53299;SDS011;39187;48.476;8.310;2023-04-08T14:50:34;14.73;;;13.37;;
53299;SDS011;39187;48.476;8.310;2023-04-08T14:53:00;14.23;;;12.90;;